sensor_id;sensor_type;location;lat;lon;timestamp;pressure;altitude;pressure_sealevel;temperature;humidity
24230;BME280;12362;50.004;8.006;2023-04-23T00:02:12;99880.22;;;13.79;100.00
24230;BME280;12362;50.004;8.006;2023-04-23T00:04:51;99883.47;;;13.70;100.00
24230;BME280;12362;50.004;8.006;2023-04-23T00:07:20;99886.59;;;13.75;100.00
24230;BME280;12362;50.004;8.006;2023-04-23T00:09:46;99891.19;;;13.59;100.00
24230;BME280;12362;50.004;8.006;2023-04-23T00:12:14;99884.50;;;13.67;100.00
24230;BME280;12362;50.004;8.006;2023-04-23T00:14:40;99886.28;;;13.79;100.00
24230;BME280;12362;50.004;8.006;2023-04-23T00:17:06;99886.28;;;13.79;100.00
24230;BME280;12362;50.004;8.006;2023-04-23T00:19:32;99886.06;;;13.82;100.00
24230;BME280;12362;50.004;8.006;2023-04-23T00:21:58;99883.75;;;13.90;100.00
24230;BME280;12362;50.004;8.006;2023-04-23T00:24:23;99881.88;;;13.92;100.00
24230;BME280;12362;50.004;8.006;2023-04-23T00:26:52;99884.88;;;13.86;100.00
24230;BME280;12362;50.004;8.006;2023-04-23T00:29:18;99886.47;;;13.89;100.00
24230;BME280;12362;50.004;8.006;2023-04-23T00:31:45;99881.97;;;13.91;100.00
24230;BME280;12362;50.004;8.006;2023-04-23T00:34:11;99882.19;;;13.88;100.00
24230;BME280;12362;50.004;8.006;2023-04-23T00:36:36;99876.25;;;13.86;100.00
24230;BME280;12362;50.004;8.006;2023-04-23T00:39:02;99882.19;;;13.75;100.00
24230;BME280;12362;50.004;8.006;2023-04-23T00:41:28;99883.53;;;13.81;100.00
24230;BME280;12362;50.004;8.006;2023-04-23T00:43:54;99890.03;;;13.75;100.00
24230;BME280;12362;50.004;8.006;2023-04-23T00:46:21;99896.38;;;13.84;100.00
24230;BME280;12362;50.004;8.006;2023-04-23T00:48:48;99889.69;;;13.92;100.00
24230;BME280;12362;50.004;8.006;2023-04-23T00:51:15;99881.59;;;13.84;100.00
24230;BME280;12362;50.004;8.006;2023-04-23T00:53:41;99886.38;;;13.78;100.00
24230;BME280;12362;50.004;8.006;2023-04-23T00:56:06;99884.47;;;13.80;100.00
24230;BME280;12362;50.004;8.006;2023-04-23T00:58:33;99877.50;;;13.80;100.00
24230;BME280;12362;50.004;8.006;2023-04-23T01:00:59;99875.44;;;13.73;100.00
24230;BME280;12362;50.004;8.006;2023-04-23T01:03:30;99879.72;;;13.74;100.00
24230;BME280;12362;50.004;8.006;2023-04-23T01:05:57;99874.06;;;13.67;100.00
24230;BME280;12362;50.004;8.006;2023-04-23T01:08:23;99879.81;;;13.72;100.00
24230;BME280;12362;50.004;8.006;2023-04-23T01:10:51;99877.84;;;13.76;100.00
24230;BME280;12362;50.004;8.006;2023-04-23T01:13:17;99876.28;;;13.73;100.00
24230;BME280;12362;50.004;8.006;2023-04-23T01:15:44;99875.22;;;13.76;100.00
24230;BME280;12362;50.004;8.006;2023-04-23T01:18:10;99875.97;;;13.65;100.00
24230;BME280;12362;50.004;8.006;2023-04-23T01:20:37;99882.44;;;13.60;100.00
24230;BME280;12362;50.004;8.006;2023-04-23T01:23:04;99897.47;;;13.57;100.00
24230;BME280;12362;50.004;8.006;2023-04-23T01:25:30;99888.16;;;13.53;100.00
24230;BME280;12362;50.004;8.006;2023-04-23T01:27:56;99888.50;;;13.61;100.00
24230;BME280;12362;50.004;8.006;2023-04-23T01:30:26;99887.03;;;13.57;100.00
24230;BME280;12362;50.004;8.006;2023-04-23T01:32:56;99896.94;;;13.64;100.00
24230;BME280;12362;50.004;8.006;2023-04-23T01:35:24;99899.44;;;13.65;100.00
24230;BME280;12362;50.004;8.006;2023-04-23T01:37:50;99894.97;;;13.55;100.00
24230;BME280;12362;50.004;8.006;2023-04-23T01:40:20;99895.19;;;13.52;100.00
24230;BME280;12362;50.004;8.006;2023-04-23T01:42:49;99912.09;;;13.47;100.00
24230;BME280;12362;50.004;8.006;2023-04-23T01:45:16;99910.09;;;13.38;100.00
24230;BME280;12362;50.004;8.006;2023-04-23T01:47:45;99912.91;;;13.35;100.00
24230;BME280;12362;50.004;8.006;2023-04-23T01:50:12;99916.16;;;13.38;100.00
24230;BME280;12362;50.004;8.006;2023-04-23T01:52:38;99915.31;;;13.38;100.00
24230;BME280;12362;50.004;8.006;2023-04-23T01:55:04;99920.44;;;13.39;100.00
24230;BME280;12362;50.004;8.006;2023-04-23T01:57:30;99918.44;;;13.43;100.00
24230;BME280;12362;50.004;8.006;2023-04-23T02:00:04;99913.00;;;13.33;100.00
24230;BME280;12362;50.004;8.006;2023-04-23T02:02:38;99910.41;;;13.21;100.00
24230;BME280;12362;50.004;8.006;2023-04-23T02:05:13;99918.22;;;13.21;100.00
24230;BME280;12362;50.004;8.006;2023-04-23T02:07:41;99913.44;;;13.27;100.00
24230;BME280;12362;50.004;8.006;2023-04-23T02:10:08;99923.22;;;13.24;100.00
24230;BME280;12362;50.004;8.006;2023-04-23T02:12:37;99922.06;;;13.15;100.00
24230;BME280;12362;50.004;8.006;2023-04-23T02:15:04;99924.38;;;13.20;100.00
24230;BME280;12362;50.004;8.006;2023-04-23T02:17:31;99916.97;;;13.26;100.00
24230;BME280;12362;50.004;8.006;2023-04-23T02:19:57;99921.44;;;13.12;100.00
24230;BME280;12362;50.004;8.006;2023-04-23T02:22:23;99930.69;;;13.03;100.00
24230;BME280;12362;50.004;8.006;2023-04-23T02:24:51;99927.91;;;13.19;100.00
24230;BME280;12362;50.004;8.006;2023-04-23T02:27:17;99929.78;;;13.17;100.00
24230;BME280;12362;50.004;8.006;2023-04-23T02:29:44;99931.88;;;13.12;100.00
24230;BME280;12362;50.004;8.006;2023-04-23T02:32:10;99933.66;;;13.24;100.00
24230;BME280;12362;50.004;8.006;2023-04-23T02:34:36;99933.84;;;13.21;100.00
24230;BME280;12362;50.004;8.006;2023-04-23T02:37:02;99932.19;;;13.20;100.00
24230;BME280;12362;50.004;8.006;2023-04-23T02:39:30;99938.66;;;13.14;100.00
24230;BME280;12362;50.004;8.006;2023-04-23T02:41:56;99932.19;;;13.20;100.00
24230;BME280;12362;50.004;8.006;2023-04-23T02:44:23;99932.31;;;13.18;100.00
24230;BME280;12362;50.004;8.006;2023-04-23T02:46:50;99935.91;;;13.16;100.00
24230;BME280;12362;50.004;8.006;2023-04-23T02:49:15;99938.84;;;13.11;100.00
24230;BME280;12362;50.004;8.006;2023-04-23T02:51:41;99934.91;;;13.18;100.00
24230;BME280;12362;50.004;8.006;2023-04-23T02:54:09;99946.22;;;13.05;100.00
24230;BME280;12362;50.004;8.006;2023-04-23T02:56:36;99937.09;;;13.12;100.00
24230;BME280;12362;50.004;8.006;2023-04-23T02:59:01;99940.13;;;13.18;100.00
24230;BME280;12362;50.004;8.006;2023-04-23T03:01:27;99953.13;;;13.06;100.00
24230;BME280;12362;50.004;8.006;2023-04-23T03:03:53;99946.28;;;13.17;100.00
24230;BME280;12362;50.004;8.006;2023-04-23T03:06:19;99945.66;;;13.14;100.00
24230;BME280;12362;50.004;8.006;2023-04-23T03:08:45;99948.44;;;13.11;100.00
24230;BME280;12362;50.004;8.006;2023-04-23T03:11:10;99942.81;;;13.04;100.00
24230;BME280;12362;50.004;8.006;2023-04-23T03:13:36;99944.56;;;13.04;100.00
24230;BME280;12362;50.004;8.006;2023-04-23T03:16:02;99948.09;;;13.03;100.00
24230;BME280;12362;50.004;8.006;2023-04-23T03:18:28;99949.13;;;13.00;100.00
24230;BME280;12362;50.004;8.006;2023-04-23T03:20:55;99949.50;;;13.08;100.00
24230;BME280;12362;50.004;8.006;2023-04-23T03:23:21;99938.44;;;13.17;100.00
24230;BME280;12362;50.004;8.006;2023-04-23T03:25:47;99942.69;;;13.06;100.00
24230;BME280;12362;50.004;8.006;2023-04-23T03:28:13;99941.66;;;13.08;100.00
24230;BME280;12362;50.004;8.006;2023-04-23T03:30:39;99940.28;;;13.03;100.00
24230;BME280;12362;50.004;8.006;2023-04-23T03:33:06;99938.81;;;12.99;100.00
24230;BME280;12362;50.004;8.006;2023-04-23T03:35:32;99934.78;;;13.07;100.00
24230;BME280;12362;50.004;8.006;2023-04-23T03:38:00;99923.81;;;13.02;100.00
24230;BME280;12362;50.004;8.006;2023-04-23T03:40:26;99932.25;;;12.93;100.00
24230;BME280;12362;50.004;8.006;2023-04-23T03:42:56;99926.28;;;12.91;100.00
24230;BME280;12362;50.004;8.006;2023-04-23T03:45:31;99937.66;;;13.03;100.00
24230;BME280;12362;50.004;8.006;2023-04-23T03:47:57;99927.91;;;13.06;100.00
24230;BME280;12362;50.004;8.006;2023-04-23T03:50:23;99939.78;;;13.10;100.00
24230;BME280;12362;50.004;8.006;2023-04-23T03:53:02;99944.34;;;12.94;100.00
24230;BME280;12362;50.004;8.006;2023-04-23T03:55:47;99937.34;;;12.95;100.00
24230;BME280;12362;50.004;8.006;2023-04-23T03:58:14;99939.59;;;12.87;100.00
24230;BME280;12362;50.004;8.006;2023-04-23T04:00:43;99938.13;;;12.83;100.00
24230;BME280;12362;50.004;8.006;2023-04-23T04:03:08;99945.19;;;12.81;100.00
24230;BME280;12362;50.004;8.006;2023-04-23T04:05:34;99957.28;;;12.82;100.00
24230;BME280;12362;50.004;8.006;2023-04-23T04:08:00;99961.22;;;12.89;100.00
24230;BME280;12362;50.004;8.006;2023-04-23T04:10:26;99950.94;;;12.86;100.00
24230;BME280;12362;50.004;8.006;2023-04-23T04:12:52;99951.06;;;12.84;100.00
24230;BME280;12362;50.004;8.006;2023-04-23T04:15:20;99947.41;;;12.87;100.00
24230;BME280;12362;50.004;8.006;2023-04-23T04:17:46;99941.28;;;12.88;100.00
24230;BME280;12362;50.004;8.006;2023-04-23T04:20:12;99947.97;;;12.92;100.00
24230;BME280;12362;50.004;8.006;2023-04-23T04:22:38;99942.97;;;12.89;100.00
24230;BME280;12362;50.004;8.006;2023-04-23T04:25:04;99946.47;;;12.88;100.00
24230;BME280;12362;50.004;8.006;2023-04-23T04:27:30;99945.09;;;12.82;100.00
24230;BME280;12362;50.004;8.006;2023-04-23T04:29:58;99944.66;;;12.76;100.00
24230;BME280;12362;50.004;8.006;2023-04-23T04:32:26;99950.06;;;12.73;100.00
24230;BME280;12362;50.004;8.006;2023-04-23T04:34:52;99949.03;;;12.75;100.00
24230;BME280;12362;50.004;8.006;2023-04-23T04:37:18;99942.00;;;12.64;100.00
24230;BME280;12362;50.004;8.006;2023-04-23T04:39:45;99942.13;;;12.62;100.00
24230;BME280;12362;50.004;8.006;2023-04-23T04:42:11;99950.31;;;12.56;100.00
24230;BME280;12362;50.004;8.006;2023-04-23T04:44:37;99948.91;;;12.51;100.00
24230;BME280;12362;50.004;8.006;2023-04-23T04:47:04;99955.06;;;12.50;100.00
24230;BME280;12362;50.004;8.006;2023-04-23T04:49:29;99953.41;;;12.49;100.00
24230;BME280;12362;50.004;8.006;2023-04-23T04:51:55;99953.16;;;12.39;100.00
24230;BME280;12362;50.004;8.006;2023-04-23T04:54:21;99953.97;;;12.40;100.00
24230;BME280;12362;50.004;8.006;2023-04-23T04:56:46;99946.28;;;12.38;100.00
24230;BME280;12362;50.004;8.006;2023-04-23T04:59:12;99953.34;;;12.36;100.00
24230;BME280;12362;50.004;8.006;2023-04-23T05:01:38;99947.22;;;12.37;100.00
24230;BME280;12362;50.004;8.006;2023-04-23T05:04:03;99944.22;;;12.43;100.00
24230;BME280;12362;50.004;8.006;2023-04-23T05:06:29;99948.25;;;12.35;100.00
24230;BME280;12362;50.004;8.006;2023-04-23T05:08:56;99943.41;;;12.29;100.00
24230;BME280;12362;50.004;8.006;2023-04-23T05:11:22;99944.91;;;12.19;100.00
24230;BME280;12362;50.004;8.006;2023-04-23T05:13:48;99950.22;;;12.17;100.00
24230;BME280;12362;50.004;8.006;2023-04-23T05:16:14;99953.28;;;12.24;100.00
24230;BME280;12362;50.004;8.006;2023-04-23T05:18:40;99950.88;;;12.21;100.00
24230;BME280;12362;50.004;8.006;2023-04-23T05:21:07;99960.34;;;12.36;100.00
24230;BME280;12362;50.004;8.006;2023-04-23T05:23:33;99958.06;;;12.44;100.00
24230;BME280;12362;50.004;8.006;2023-04-23T05:26:03;99953.03;;;12.41;100.00
24230;BME280;12362;50.004;8.006;2023-04-23T05:28:29;99960.03;;;12.40;100.00
24230;BME280;12362;50.004;8.006;2023-04-23T05:30:56;99956.63;;;12.66;100.00
24230;BME280;12362;50.004;8.006;2023-04-23T05:33:25;99958.22;;;12.81;100.00
24230;BME280;12362;50.004;8.006;2023-04-23T05:35:51;99960.06;;;12.93;100.00
24230;BME280;12362;50.004;8.006;2023-04-23T05:38:17;99963.97;;;13.12;100.00
24230;BME280;12362;50.004;8.006;2023-04-23T05:40:43;99956.78;;;13.16;100.00
24230;BME280;12362;50.004;8.006;2023-04-23T05:43:08;99969.94;;;13.14;100.00
24230;BME280;12362;50.004;8.006;2023-04-23T05:45:34;99966.13;;;13.32;100.00
24230;BME280;12362;50.004;8.006;2023-04-23T05:48:00;99975.19;;;13.52;100.00
24230;BME280;12362;50.004;8.006;2023-04-23T05:50:25;99974.06;;;13.04;100.00
24230;BME280;12362;50.004;8.006;2023-04-23T05:52:51;99970.28;;;13.35;100.00
24230;BME280;12362;50.004;8.006;2023-04-23T05:55:16;99966.56;;;13.76;100.00
24230;BME280;12362;50.004;8.006;2023-04-23T05:57:42;99942.22;;;13.88;100.00
24230;BME280;12362;50.004;8.006;2023-04-23T06:00:09;99949.22;;;13.75;100.00
24230;BME280;12362;50.004;8.006;2023-04-23T06:05:57;99931.72;;;14.25;100.00
24230;BME280;12362;50.004;8.006;2023-04-23T06:08:22;99940.16;;;14.41;100.00
24230;BME280;12362;50.004;8.006;2023-04-23T06:10:48;99937.53;;;14.64;100.00
24230;BME280;12362;50.004;8.006;2023-04-23T06:13:14;99938.66;;;14.50;100.00
24230;BME280;12362;50.004;8.006;2023-04-23T06:15:40;99945.16;;;14.67;100.00
24230;BME280;12362;50.004;8.006;2023-04-23T06:18:05;99950.56;;;14.77;100.00
24230;BME280;12362;50.004;8.006;2023-04-23T06:20:34;99945.72;;;14.83;100.00
24230;BME280;12362;50.004;8.006;2023-04-23T06:23:00;99944.38;;;15.36;100.00
24230;BME280;12362;50.004;8.006;2023-04-23T06:25:27;99933.56;;;15.06;100.00
24230;BME280;12362;50.004;8.006;2023-04-23T06:27:53;99945.44;;;14.52;100.00
24230;BME280;12362;50.004;8.006;2023-04-23T06:30:22;99959.94;;;14.08;100.00
24230;BME280;12362;50.004;8.006;2023-04-23T06:32:49;99956.84;;;13.78;100.00
24230;BME280;12362;50.004;8.006;2023-04-23T06:35:15;99957.69;;;13.66;100.00
24230;BME280;12362;50.004;8.006;2023-04-23T06:37:41;99957.16;;;13.73;100.00
24230;BME280;12362;50.004;8.006;2023-04-23T06:40:07;99948.19;;;13.90;100.00
24230;BME280;12362;50.004;8.006;2023-04-23T06:42:32;99927.59;;;13.98;100.00
24230;BME280;12362;50.004;8.006;2023-04-23T06:45:18;99919.09;;;14.07;100.00
24230;BME280;12362;50.004;8.006;2023-04-23T06:47:44;99919.00;;;14.21;100.00
24230;BME280;12362;50.004;8.006;2023-04-23T06:50:09;99918.94;;;13.97;100.00
24230;BME280;12362;50.004;8.006;2023-04-23T06:52:35;99919.88;;;13.84;100.00
24230;BME280;12362;50.004;8.006;2023-04-23T06:55:02;99918.69;;;14.00;100.00
24230;BME280;12362;50.004;8.006;2023-04-23T06:57:28;99901.59;;;13.96;100.00
24230;BME280;12362;50.004;8.006;2023-04-23T06:59:53;99894.66;;;14.90;100.00
24230;BME280;12362;50.004;8.006;2023-04-23T07:02:25;99884.34;;;16.00;100.00
24230;BME280;12362;50.004;8.006;2023-04-23T07:04:53;99873.41;;;15.51;100.00
24230;BME280;12362;50.004;8.006;2023-04-23T07:07:19;99879.34;;;15.53;100.00
24230;BME280;12362;50.004;8.006;2023-04-23T07:09:45;99901.72;;;15.12;100.00
24230;BME280;12362;50.004;8.006;2023-04-23T07:12:10;99905.19;;;14.78;100.00
24230;BME280;12362;50.004;8.006;2023-04-23T07:14:36;99912.81;;;14.57;100.00
24230;BME280;12362;50.004;8.006;2023-04-23T07:17:02;99918.47;;;14.28;100.00
24230;BME280;12362;50.004;8.006;2023-04-23T07:19:27;99904.63;;;14.39;100.00
24230;BME280;12362;50.004;8.006;2023-04-23T07:21:53;99897.63;;;14.62;100.00
24230;BME280;12362;50.004;8.006;2023-04-23T07:24:18;99906.28;;;14.63;100.00
24230;BME280;12362;50.004;8.006;2023-04-23T07:26:44;99904.03;;;14.58;100.00
24230;BME280;12362;50.004;8.006;2023-04-23T07:29:11;99899.06;;;14.66;100.00
24230;BME280;12362;50.004;8.006;2023-04-23T07:31:38;99906.06;;;14.43;100.00
24230;BME280;12362;50.004;8.006;2023-04-23T07:34:05;99896.53;;;14.54;100.00
24230;BME280;12362;50.004;8.006;2023-04-23T07:36:31;99886.59;;;14.70;100.00
24230;BME280;12362;50.004;8.006;2023-04-23T07:38:58;99890.81;;;14.83;100.00
24230;BME280;12362;50.004;8.006;2023-04-23T07:41:23;99885.00;;;14.80;100.00
24230;BME280;12362;50.004;8.006;2023-04-23T07:43:52;99878.50;;;14.96;100.00
24230;BME280;12362;50.004;8.006;2023-04-23T07:46:18;99881.75;;;15.56;100.00
24230;BME280;12362;50.004;8.006;2023-04-23T07:52:03;99866.84;;;15.89;100.00
24230;BME280;12362;50.004;8.006;2023-04-23T07:54:29;99848.81;;;16.40;100.00
24230;BME280;12362;50.004;8.006;2023-04-23T07:56:55;99850.69;;;16.48;100.00
24230;BME280;12362;50.004;8.006;2023-04-23T07:59:21;99849.44;;;16.52;100.00
24230;BME280;12362;50.004;8.006;2023-04-23T08:01:47;99838.00;;;16.53;100.00
24230;BME280;12362;50.004;8.006;2023-04-23T08:04:13;99844.75;;;16.36;100.00
24230;BME280;12362;50.004;8.006;2023-04-23T08:06:39;99842.97;;;16.25;100.00
24230;BME280;12362;50.004;8.006;2023-04-23T08:09:06;99849.97;;;15.71;100.00
24230;BME280;12362;50.004;8.006;2023-04-23T08:11:32;99838.09;;;16.63;100.00
24230;BME280;12362;50.004;8.006;2023-04-23T08:13:58;99834.72;;;16.51;100.00
24230;BME280;12362;50.004;8.006;2023-04-23T08:16:24;99837.72;;;16.67;100.00
24230;BME280;12362;50.004;8.006;2023-04-23T08:18:50;99836.84;;;16.46;100.00
24230;BME280;12362;50.004;8.006;2023-04-23T08:21:16;99827.16;;;16.78;100.00
24230;BME280;12362;50.004;8.006;2023-04-23T08:23:41;99831.66;;;16.67;100.00
24230;BME280;12362;50.004;8.006;2023-04-23T08:26:07;99814.91;;;17.49;100.00
24230;BME280;12362;50.004;8.006;2023-04-23T08:28:33;99820.00;;;16.80;100.00
24230;BME280;12362;50.004;8.006;2023-04-23T08:30:59;99826.59;;;16.75;100.00
24230;BME280;12362;50.004;8.006;2023-04-23T08:33:25;99819.81;;;16.72;100.00
24230;BME280;12362;50.004;8.006;2023-04-23T08:35:51;99819.06;;;16.81;100.00
24230;BME280;12362;50.004;8.006;2023-04-23T08:38:16;99818.91;;;16.83;100.00
24230;BME280;12362;50.004;8.006;2023-04-23T08:40:44;99818.66;;;16.86;100.00
24230;BME280;12362;50.004;8.006;2023-04-23T08:43:18;99804.22;;;17.41;100.00
24230;BME280;12362;50.004;8.006;2023-04-23T08:45:48;99796.13;;;18.03;100.00
24230;BME280;12362;50.004;8.006;2023-04-23T08:48:14;99780.81;;;19.38;100.00
24230;BME280;12362;50.004;8.006;2023-04-23T08:50:43;99777.47;;;20.00;100.00
24230;BME280;12362;50.004;8.006;2023-04-23T08:53:10;99775.56;;;19.65;100.00
24230;BME280;12362;50.004;8.006;2023-04-23T08:55:42;99775.22;;;19.78;100.00
24230;BME280;12362;50.004;8.006;2023-04-23T08:58:11;99768.97;;;20.40;100.00
24230;BME280;12362;50.004;8.006;2023-04-23T09:00:37;99765.94;;;20.18;100.00
24230;BME280;12362;50.004;8.006;2023-04-23T09:03:03;99764.38;;;20.60;100.00
24230;BME280;12362;50.004;8.006;2023-04-23T09:05:29;99761.34;;;20.55;100.00
24230;BME280;12362;50.004;8.006;2023-04-23T09:07:56;99768.06;;;19.61;100.00
24230;BME280;12362;50.004;8.006;2023-04-23T09:10:23;99782.84;;;18.04;100.00
24230;BME280;12362;50.004;8.006;2023-04-23T09:12:49;99777.06;;;18.20;100.00
24230;BME280;12362;50.004;8.006;2023-04-23T09:15:15;99775.31;;;18.29;100.00
24230;BME280;12362;50.004;8.006;2023-04-23T09:17:44;99767.28;;;18.40;100.00
24230;BME280;12362;50.004;8.006;2023-04-23T09:20:14;99765.19;;;18.63;100.00
24230;BME280;12362;50.004;8.006;2023-04-23T09:22:50;99765.44;;;18.60;100.00
24230;BME280;12362;50.004;8.006;2023-04-23T09:25:21;99758.00;;;19.29;100.00
24230;BME280;12362;50.004;8.006;2023-04-23T09:27:50;99748.00;;;18.78;100.00
24230;BME280;12362;50.004;8.006;2023-04-23T09:30:17;99754.38;;;18.56;100.00
24230;BME280;12362;50.004;8.006;2023-04-23T09:32:44;99753.56;;;18.37;100.00
24230;BME280;12362;50.004;8.006;2023-04-23T09:35:15;99743.44;;;18.80;100.00
24230;BME280;12362;50.004;8.006;2023-04-23T09:37:43;99742.00;;;19.40;100.00
24230;BME280;12362;50.004;8.006;2023-04-23T09:40:13;99741.00;;;18.96;100.00
24230;BME280;12362;50.004;8.006;2023-04-23T09:42:39;99737.66;;;19.93;100.00
24230;BME280;12362;50.004;8.006;2023-04-23T09:45:08;99721.16;;;20.43;100.00
24230;BME280;12362;50.004;8.006;2023-04-23T09:47:40;99727.53;;;19.98;100.00
24230;BME280;12362;50.004;8.006;2023-04-23T09:50:12;99720.22;;;20.27;100.00
24230;BME280;12362;50.004;8.006;2023-04-23T09:52:38;99730.75;;;20.10;100.00
24230;BME280;12362;50.004;8.006;2023-04-23T09:55:04;99717.50;;;20.36;100.00
24230;BME280;12362;50.004;8.006;2023-04-23T09:57:39;99712.59;;;20.84;100.00
24230;BME280;12362;50.004;8.006;2023-04-23T10:00:17;99711.19;;;21.23;95.66
24230;BME280;12362;50.004;8.006;2023-04-23T10:02:50;99720.88;;;20.29;100.00
24230;BME280;12362;50.004;8.006;2023-04-23T10:05:20;99716.06;;;20.42;100.00
24230;BME280;12362;50.004;8.006;2023-04-23T10:07:47;99711.06;;;20.56;100.00
24230;BME280;12362;50.004;8.006;2023-04-23T10:10:17;99719.91;;;20.13;100.00
24230;BME280;12362;50.004;8.006;2023-04-23T10:12:43;99719.97;;;19.41;100.00
24230;BME280;12362;50.004;8.006;2023-04-23T10:15:13;99718.72;;;19.00;100.00
24230;BME280;12362;50.004;8.006;2023-04-23T10:17:39;99722.03;;;19.02;100.00
24230;BME280;12362;50.004;8.006;2023-04-23T10:20:06;99728.88;;;18.85;100.00
24230;BME280;12362;50.004;8.006;2023-04-23T10:22:34;99719.78;;;18.61;100.00
24230;BME280;12362;50.004;8.006;2023-04-23T10:25:05;99715.97;;;18.92;100.00
24230;BME280;12362;50.004;8.006;2023-04-23T10:27:37;99716.41;;;18.87;100.00
24230;BME280;12362;50.004;8.006;2023-04-23T10:30:08;99715.47;;;19.24;100.00
24230;BME280;12362;50.004;8.006;2023-04-23T10:32:35;99713.25;;;18.74;100.00
24230;BME280;12362;50.004;8.006;2023-04-23T10:35:01;99713.13;;;18.66;100.00
24230;BME280;12362;50.004;8.006;2023-04-23T10:37:27;99711.00;;;18.79;100.00
24230;BME280;12362;50.004;8.006;2023-04-23T10:39:55;99707.28;;;19.27;100.00
24230;BME280;12362;50.004;8.006;2023-04-23T10:42:21;99713.53;;;19.08;100.00
24230;BME280;12362;50.004;8.006;2023-04-23T10:44:47;99706.75;;;19.24;100.00
24230;BME280;12362;50.004;8.006;2023-04-23T10:47:14;99692.28;;;19.99;100.00
24230;BME280;12362;50.004;8.006;2023-04-23T10:49:40;99692.66;;;20.04;97.20
24230;BME280;12362;50.004;8.006;2023-04-23T10:52:08;99683.81;;;19.96;94.25
24230;BME280;12362;50.004;8.006;2023-04-23T10:54:34;99680.34;;;19.95;97.91
24230;BME280;12362;50.004;8.006;2023-04-23T10:57:05;99677.22;;;20.09;90.55
24230;BME280;12362;50.004;8.006;2023-04-23T10:59:37;99675.47;;;19.65;98.63
24230;BME280;12362;50.004;8.006;2023-04-23T11:04:33;99662.19;;;19.75;99.23
24230;BME280;12362;50.004;8.006;2023-04-23T11:07:09;99658.50;;;19.23;100.00
24230;BME280;12362;50.004;8.006;2023-04-23T11:09:41;99668.34;;;19.48;100.00
24230;BME280;12362;50.004;8.006;2023-04-23T11:12:11;99662.31;;;19.02;100.00
24230;BME280;12362;50.004;8.006;2023-04-23T11:17:10;99665.06;;;19.10;100.00
24230;BME280;12362;50.004;8.006;2023-04-23T11:19:38;99654.38;;;19.83;100.00
24230;BME280;12362;50.004;8.006;2023-04-23T11:22:14;99658.81;;;19.82;100.00
24230;BME280;12362;50.004;8.006;2023-04-23T11:24:45;99650.97;;;19.73;100.00
24230;BME280;12362;50.004;8.006;2023-04-23T11:27:15;99658.94;;;19.46;100.00
24230;BME280;12362;50.004;8.006;2023-04-23T11:29:44;99645.47;;;19.84;100.00
24230;BME280;12362;50.004;8.006;2023-04-23T11:32:15;99633.41;;;20.59;96.99
24230;BME280;12362;50.004;8.006;2023-04-23T11:34:47;99630.97;;;20.40;98.91
24230;BME280;12362;50.004;8.006;2023-04-23T11:37:16;99634.34;;;20.07;100.00
24230;BME280;12362;50.004;8.006;2023-04-23T11:39:44;99631.25;;;20.54;93.64
24230;BME280;12362;50.004;8.006;2023-04-23T11:42:10;99629.44;;;20.29;99.37
24230;BME280;12362;50.004;8.006;2023-04-23T11:44:40;99615.88;;;20.75;91.66
24230;BME280;12362;50.004;8.006;2023-04-23T11:47:06;99614.50;;;20.20;93.68
24230;BME280;12362;50.004;8.006;2023-04-23T11:49:32;99602.88;;;20.06;93.37
24230;BME280;12362;50.004;8.006;2023-04-23T11:51:58;99596.59;;;20.49;97.12
24230;BME280;12362;50.004;8.006;2023-04-23T11:54:26;99591.75;;;20.37;90.14
24230;BME280;12362;50.004;8.006;2023-04-23T11:56:53;99592.34;;;20.82;87.26
24230;BME280;12362;50.004;8.006;2023-04-23T11:59:19;99580.72;;;21.65;92.09
24230;BME280;12362;50.004;8.006;2023-04-23T12:01:58;99573.72;;;22.44;73.32
24230;BME280;12362;50.004;8.006;2023-04-23T12:04:36;99569.97;;;22.77;69.79
24230;BME280;12362;50.004;8.006;2023-04-23T12:07:05;99568.63;;;23.27;64.12
24230;BME280;12362;50.004;8.006;2023-04-23T12:09:30;99573.91;;;22.10;68.71
24230;BME280;12362;50.004;8.006;2023-04-23T12:11:56;99566.97;;;21.86;71.92
24230;BME280;12362;50.004;8.006;2023-04-23T12:14:27;99557.06;;;23.65;61.87
24230;BME280;12362;50.004;8.006;2023-04-23T12:16:53;99564.31;;;23.26;59.62
24230;BME280;12362;50.004;8.006;2023-04-23T12:19:28;99549.09;;;23.65;60.03
24230;BME280;12362;50.004;8.006;2023-04-23T12:21:59;99539.28;;;23.28;59.33
24230;BME280;12362;50.004;8.006;2023-04-23T12:24:28;99548.75;;;22.30;60.54
24230;BME280;12362;50.004;8.006;2023-04-23T12:26:56;99542.69;;;22.14;63.66
24230;BME280;12362;50.004;8.006;2023-04-23T12:29:28;99538.31;;;22.45;60.13
24230;BME280;12362;50.004;8.006;2023-04-23T12:31:57;99531.63;;;22.73;58.41
24230;BME280;12362;50.004;8.006;2023-04-23T12:34:23;99534.38;;;22.25;58.50
24230;BME280;12362;50.004;8.006;2023-04-23T12:36:53;99522.94;;;22.48;59.00
24230;BME280;12362;50.004;8.006;2023-04-23T12:39:30;99510.94;;;22.06;60.48
24230;BME280;12362;50.004;8.006;2023-04-23T12:42:00;99512.06;;;23.12;55.66
24230;BME280;12362;50.004;8.006;2023-04-23T12:44:31;99506.25;;;23.39;53.96
24230;BME280;12362;50.004;8.006;2023-04-23T12:47:00;99495.66;;;23.98;53.22
24230;BME280;12362;50.004;8.006;2023-04-23T12:49:28;99485.38;;;23.95;54.08
24230;BME280;12362;50.004;8.006;2023-04-23T12:52:03;99489.00;;;23.57;54.36
24230;BME280;12362;50.004;8.006;2023-04-23T12:54:35;99507.66;;;22.96;57.00
24230;BME280;12362;50.004;8.006;2023-04-23T12:57:07;99489.78;;;22.60;58.86
24230;BME280;12362;50.004;8.006;2023-04-23T12:59:36;99477.72;;;23.63;57.71
24230;BME280;12362;50.004;8.006;2023-04-23T13:02:03;99467.00;;;23.93;54.76
24230;BME280;12362;50.004;8.006;2023-04-23T13:04:34;99473.97;;;23.35;56.37